Time;durP1;ratioP1;P1;durP2;ratioP2;P2;SDS_P1;SDS_P2;PMS_P1;PMS_P2;Temp;Humidity;BMP_temperature;BMP_pressure;BME280_temperature;BME280_humidity;BME280_pressure;Samples;Min_cycle;Max_cycle;Signal;HPM_P1;HPM_P2
2022/08/10 00:02:33;;;;;;;13.25;9.00;;;;;;;22.66;59.69;95019.13;5014818;28;20676;-75
2022/08/10 00:04:58;;;;;;;9.35;6.00;;;;;;;22.31;60.04;94971.16;4997021;28;20180;-74
2022/08/10 00:07:23;;;;;;;6.80;4.93;;;;;;;22.48;60.43;95009.13;5014544;28;20176;-75
2022/08/10 00:09:49;;;;;;;9.50;5.88;;;;;;;22.45;60.38;95007.00;5014630;28;20184;-75
2022/08/10 00:12:14;;;;;;;5.95;4.93;;;;;;;22.37;60.50;94996.88;5014294;28;20188;-75
2022/08/10 00:14:40;;;;;;;12.07;5.65;;;;;;;22.37;60.61;94996.88;5014621;28;20577;-75
2022/08/10 00:17:05;;;;;;;14.82;6.25;;;;;;;22.38;61.10;95003.84;5014369;28;20694;-75
2022/08/10 00:19:30;;;;;;;14.13;7.15;;;;;;;22.33;61.36;95004.66;5014203;28;20665;-75
2022/08/10 00:21:56;;;;;;;8.38;5.53;;;;;;;22.27;61.52;94999.63;5014248;28;20634;-75
2022/08/10 00:24:21;;;;;;;8.13;6.22;;;;;;;22.30;61.07;94997.19;5014333;28;20176;-75
2022/08/10 00:26:47;;;;;;;13.32;5.70;;;;;;;22.30;61.14;94999.06;5014203;28;20176;-75
2022/08/10 00:29:12;;;;;;;10.30;5.20;;;;;;;22.33;61.54;95003.84;5014158;28;20187;-75
2022/08/10 00:31:38;;;;;;;9.15;5.30;;;;;;;22.36;61.20;95001.44;5013867;28;20586;-75
2022/08/10 00:34:03;;;;;;;7.30;5.30;;;;;;;22.36;61.01;95003.31;5013871;28;20255;-75
2022/08/10 00:36:28;;;;;;;14.02;7.97;;;;;;;22.35;61.07;95004.38;5014004;28;20600;-75
2022/08/10 00:38:54;;;;;;;12.40;7.07;;;;;;;22.31;61.31;95000.69;5014019;28;20197;-75
2022/08/10 00:41:19;;;;;;;10.35;6.93;;;;;;;22.25;61.74;95004.47;5014059;28;20646;-75
2022/08/10 00:43:44;;;;;;;17.70;9.65;;;;;;;22.24;61.65;95008.22;5014019;28;20176;-75
2022/08/10 00:46:10;;;;;;;11.18;7.80;;;;;;;22.15;61.78;95000.78;5013912;28;20605;-75
2022/08/10 00:48:35;;;;;;;15.13;8.93;;;;;;;22.13;61.76;95005.63;5013907;28;20198;-75
2022/08/10 00:51:01;;;;;;;14.35;7.20;;;;;;;22.07;61.94;95004.06;5013861;28;20188;-75
2022/08/10 00:53:27;;;;;;;17.70;10.18;;;;;;;22.10;62.16;95013.44;5013837;28;20184;-75
2022/08/10 00:55:53;;;;;;;18.98;9.95;;;;;;;22.02;62.09;95020.19;5013864;28;20215;-75
2022/08/10 00:58:18;;;;;;;16.48;8.45;;;;;;;21.80;62.43;94995.63;5013892;28;20255;-75
2022/08/10 01:00:46;;;;;;;9.13;5.32;;;;;;;21.93;62.08;95018.34;5013570;28;20208;-75
2022/08/10 01:03:12;;;;;;;11.20;7.00;;;;;;;21.93;62.42;95012.97;5013696;28;20226;-75
2022/08/10 01:05:47;;;;;;;11.23;6.15;;;;;;;21.95;62.70;95011.63;5013586;28;20263;-75
2022/08/10 01:08:33;;;;;;;14.07;7.22;;;;;;;21.96;62.52;95010.56;4997633;28;20183;-75
2022/08/10 01:11:27;;;;;;;10.57;5.90;;;;;;;21.89;62.76;95011.91;5013519;28;20267;-75
2022/08/10 01:14:28;;;;;;;7.60;5.40;;;;;;;21.73;63.64;95020.03;5012663;28;20640;-75
2022/08/10 01:17:01;;;;;;;12.10;7.05;;;;;;;21.73;63.45;95013.88;5013537;28;20725;-75
2022/08/10 01:19:33;;;;;;;7.68;5.30;;;;;;;21.72;63.81;95013.09;4998620;28;20201;-75
2022/08/10 01:22:20;;;;;;;9.27;6.00;;;;;;;21.68;63.48;95017.41;5013163;28;20220;-75
2022/08/10 01:25:00;;;;;;;5.95;4.75;;;;;;;21.54;63.72;95005.66;5013273;28;20581;-75
2022/08/10 01:27:35;;;;;;;8.60;6.18;;;;;;;21.46;64.30;95007.03;5013249;28;20638;-75
2022/08/10 01:30:08;;;;;;;9.85;4.93;;;;;;;21.46;64.64;95015.09;5013168;28;20262;-75
2022/08/10 01:32:39;;;;;;;10.93;5.63;;;;;;;21.53;64.16;95005.97;4997070;28;20243;-75
2022/08/10 01:35:13;;;;;;;5.85;4.65;;;;;;;21.55;64.14;95009.16;5013218;28;20188;-75
2022/08/10 01:38:26;;;;;;;7.00;5.13;;;;;;;21.47;64.12;94997.13;5012978;28;20212;-75
2022/08/10 01:40:56;;;;;;;7.55;4.13;;;;;;;21.58;64.28;95004.06;4955225;28;20185;-75
2022/08/10 01:43:26;;;;;;;11.98;5.32;;;;;;;21.52;64.55;95010.53;4993236;28;20223;-75
2022/08/10 01:45:55;;;;;;;8.07;4.88;;;;;;;21.42;64.60;94997.97;4997437;28;20200;-75
2022/08/10 01:48:30;;;;;;;5.10;4.60;;;;;;;21.12;64.91;94973.94;5012984;28;20608;-75
2022/08/10 01:51:01;;;;;;;9.85;5.75;;;;;;;21.17;65.33;94973.97;5012581;28;20186;-75
2022/08/10 01:53:34;;;;;;;8.93;5.28;;;;;;;21.34;65.18;95000.41;5012611;28;20176;-75
2022/08/10 01:56:01;;;;;;;13.00;8.23;;;;;;;21.29;65.18;94985.16;5012582;28;20172;-75
2022/08/10 01:58:30;;;;;;;8.88;6.10;;;;;;;21.41;65.28;94999.03;5012530;28;20184;-75
2022/08/10 02:00:57;;;;;;;6.97;5.10;;;;;;;21.30;65.68;94984.09;5012410;28;20173;-75
2022/08/10 02:03:24;;;;;;;13.13;7.68;;;;;;;21.33;65.29;94988.09;5012604;28;20176;-75
2022/08/10 02:05:53;;;;;;;12.40;7.57;;;;;;;21.33;66.00;94994.25;5012348;28;20186;-75
2022/08/10 02:08:21;;;;;;;11.32;5.28;;;;;;;21.34;65.80;94990.50;5012696;28;20203;-75
2022/08/10 02:10:49;;;;;;;9.57;6.30;;;;;;;21.37;65.50;94997.16;5012466;28;20254;-75
2022/08/10 02:13:16;;;;;;;10.82;5.90;;;;;;;21.39;65.73;94992.34;5012402;28;20243;-75
2022/08/10 02:15:44;;;;;;;7.82;5.10;;;;;;;21.35;65.56;94991.31;5012470;28;20176;-75
2022/08/10 02:18:11;;;;;;;10.25;6.47;;;;;;;21.15;65.74;94953.88;5012201;28;20180;-75
2022/08/10 02:20:44;;;;;;;12.07;5.88;;;;;;;21.41;65.72;94993.69;5005459;28;20239;-75
2022/08/10 02:23:38;;;;;;;9.45;6.13;;;;;;;21.42;65.85;94992.63;4992155;28;20187;-75
2022/08/10 02:26:06;;;;;;;7.47;5.22;;;;;;;21.42;65.68;94997.16;4999784;28;20741;-75
2022/08/10 02:28:34;;;;;;;10.93;5.70;;;;;;;21.21;65.83;94975.00;5012089;28;20200;-75
2022/08/10 02:31:12;;;;;;;5.78;5.18;;;;;;;21.32;65.68;94998.00;5011856;28;20665;-75
2022/08/10 02:33:41;;;;;;;7.32;5.18;;;;;;;21.31;65.91;95001.75;5016080;28;20222;-75
2022/08/10 02:36:09;;;;;;;11.07;6.03;;;;;;;21.32;66.22;95008.72;5011811;28;20179;-75
2022/08/10 02:39:03;;;;;;;8.00;5.50;;;;;;;21.27;66.51;95005.28;5011767;28;20192;-74
2022/08/10 02:41:36;;;;;;;13.25;6.72;;;;;;;21.28;66.11;94996.94;5008718;28;20195;-74
2022/08/10 02:44:09;;;;;;;9.57;6.65;;;;;;;21.25;66.14;95008.22;5011815;28;20679;-74
2022/08/10 02:46:48;;;;;;;16.02;7.50;;;;;;;20.99;66.55;94975.34;5011675;28;20179;-74
2022/08/10 02:49:34;;;;;;;24.83;14.23;;;;;;;21.18;66.91;95012.25;5011580;28;20172;-74
2022/08/10 02:52:08;;;;;;;26.48;13.50;;;;;;;21.08;67.51;95002.34;5011455;28;20262;-74
2022/08/10 02:54:47;;;;;;;23.85;13.20;;;;;;;21.06;67.77;95001.81;5011485;28;20259;-74
2022/08/10 02:57:17;;;;;;;14.55;7.43;;;;;;;20.91;67.19;94972.44;5011507;28;20212;-74
2022/08/10 02:59:56;;;;;;;15.30;9.50;;;;;;;21.14;67.58;95006.63;5011262;28;20197;-74
2022/08/10 03:02:48;;;;;;;14.88;7.85;;;;;;;20.93;67.82;95010.44;5011321;28;20271;-74
2022/08/10 03:05:18;;;;;;;17.27;9.55;;;;;;;20.84;68.92;95014.75;5007741;28;20195;-74
2022/08/10 03:07:51;;;;;;;14.30;8.15;;;;;;;20.95;68.20;95008.25;5011172;28;20190;-74
2022/08/10 03:10:38;;;;;;;22.75;9.10;;;;;;;20.96;68.41;95005.31;5011232;28;20226;-74
2022/08/10 03:13:08;;;;;;;30.02;9.80;;;;;;;21.00;68.30;95010.94;5011238;28;20180;-74
2022/08/10 03:15:36;;;;;;;16.95;9.27;;;;;;;21.00;68.13;95009.06;5011074;28;20699;-74
2022/08/10 03:18:03;;;;;;;14.15;8.13;;;;;;;20.82;68.80;95008.84;5010988;28;20263;-74
2022/08/10 03:20:34;;;;;;;8.65;5.28;;;;;;;20.85;68.95;95014.44;5010679;28;20204;-74
2022/08/10 03:23:01;;;;;;;12.07;6.68;;;;;;;20.82;69.27;95019.56;5010934;28;20613;-74
2022/08/10 03:25:28;;;;;;;16.13;7.05;;;;;;;20.84;69.01;95017.41;5010918;28;20176;-74
2022/08/10 03:27:54;;;;;;;13.43;6.28;;;;;;;20.64;69.98;95019.03;5010835;28;20180;-74
2022/08/10 03:30:20;;;;;;;14.90;6.90;;;;;;;20.45;70.11;94977.06;5010942;28;20207;-73
2022/08/10 03:32:46;;;;;;;11.27;5.90;;;;;;;20.77;69.99;95022.22;5010735;28;20668;-74
2022/08/10 03:35:12;;;;;;;11.93;5.95;;;;;;;20.83;69.52;95016.59;5010123;28;20181;-74
2022/08/10 03:37:38;;;;;;;10.00;5.75;;;;;;;20.84;69.29;95018.22;5010361;28;20175;-73
2022/08/10 03:40:05;;;;;;;10.13;6.18;;;;;;;20.57;69.19;94978.41;5009868;28;20668;-73
2022/08/10 03:42:32;;;;;;;13.25;6.18;;;;;;;20.84;69.27;95022.75;5016734;28;20579;-73
2022/08/10 03:45:00;;;;;;;14.82;6.82;;;;;;;20.83;69.30;95023.84;5021213;28;20183;-72
2022/08/10 03:47:29;;;;;;;9.20;6.38;;;;;;;20.86;69.31;95024.06;5029760;28;20187;-72
2022/08/10 03:49:57;;;;;;;9.32;4.88;;;;;;;20.91;69.36;95032.13;5030050;28;20175;-72
2022/08/10 03:52:23;;;;;;;13.18;7.32;;;;;;;20.86;69.25;95033.97;5024470;28;20556;-73
2022/08/10 03:54:50;;;;;;;18.75;8.02;;;;;;;20.89;69.65;95041.47;5010096;28;20188;-72
2022/08/10 03:57:16;;;;;;;9.68;5.53;;;;;;;20.63;69.08;95036.16;5001529;28;20180;-72
2022/08/10 03:59:42;;;;;;;12.18;6.65;;;;;;;20.60;70.04;95036.69;5003193;28;20200;-72
2022/08/10 04:02:08;;;;;;;19.73;8.32;;;;;;;20.69;70.09;95036.94;5000356;28;20172;-72
2022/08/10 04:04:33;;;;;;;11.30;6.57;;;;;;;20.78;69.17;95043.38;4999347;28;20653;-72
2022/08/10 04:06:59;;;;;;;11.20;7.65;;;;;;;20.91;68.74;95042.81;5007412;28;20184;-72
2022/08/10 04:09:27;;;;;;;9.55;6.25;;;;;;;20.98;68.82;95042.53;5010070;28;20192;-72
2022/08/10 04:11:53;;;;;;;10.00;6.25;;;;;;;21.11;68.31;95047.31;5010261;28;20204;-72
2022/08/10 04:14:18;;;;;;;14.65;7.25;;;;;;;21.29;68.26;95040.59;5010074;28;20218;-72
2022/08/10 04:16:43;;;;;;;8.27;5.80;;;;;;;21.46;67.43;95046.44;5009908;28;20176;-72
2022/08/10 04:19:10;;;;;;;18.33;9.55;;;;;;;21.62;67.10;95050.66;5009798;28;20194;-72
2022/08/10 04:21:41;;;;;;;25.13;9.18;;;;;;;21.82;66.11;95055.13;5010350;28;20187;-72
2022/08/10 04:24:14;;;;;;;33.40;18.48;;;;;;;22.01;65.62;95048.06;5024969;28;20180;-72
2022/08/10 04:26:39;;;;;;;18.40;9.00;;;;;;;22.26;65.11;95048.97;5022196;28;20180;-73
2022/08/10 04:29:05;;;;;;;12.77;6.10;;;;;;;22.47;64.38;95043.22;5029476;28;20183;-73
2022/08/10 04:31:31;;;;;;;19.13;7.78;;;;;;;22.72;63.18;95026.09;5029268;28;20179;-73
2022/08/10 04:33:58;;;;;;;12.95;7.22;;;;;;;23.22;62.42;95048.16;5029679;28;20215;-73
2022/08/10 04:36:25;;;;;;;13.02;6.32;;;;;;;23.52;61.96;95045.19;5020305;28;20196;-73
2022/08/10 04:38:52;;;;;;;9.70;4.95;;;;;;;23.83;60.78;95056.34;5009226;28;20200;-73
2022/08/10 04:41:18;;;;;;;18.77;8.25;;;;;;;24.21;60.39;95057.22;5009770;28;20185;-73
2022/08/10 04:43:44;;;;;;;15.48;7.35;;;;;;;24.51;59.69;95044.38;5009046;28;20187;-72
2022/08/10 04:46:09;;;;;;;21.17;10.23;;;;;;;24.99;58.67;95059.22;5010115;28;20982;-73
2022/08/10 04:48:35;;;;;;;16.92;8.32;;;;;;;25.49;57.75;95059.38;5014062;28;20180;-73
2022/08/10 04:51:00;;;;;;;18.48;8.57;;;;;;;25.96;56.35;95050.06;5016321;28;20189;-73
2022/08/10 04:53:26;;;;;;;11.25;6.93;;;;;;;26.43;55.08;95051.47;5019230;28;20184;-73
2022/08/10 04:55:51;;;;;;;13.27;7.35;;;;;;;26.92;53.83;95063.28;5014473;28;20645;-73
2022/08/10 04:58:17;;;;;;;16.15;10.43;;;;;;;27.43;52.04;95058.16;5021723;28;20612;-74
2022/08/10 05:00:42;;;;;;;10.32;6.35;;;;;;;27.92;50.97;95061.72;5012344;28;20229;-74
2022/08/10 05:03:07;;;;;;;8.15;6.50;;;;;;;28.49;48.88;95067.84;5023420;28;20180;-74
2022/08/10 05:05:33;;;;;;;8.15;5.63;;;;;;;28.86;48.07;95060.22;5032744;28;20179;-75
2022/08/10 05:07:58;;;;;;;8.85;5.80;;;;;;;29.40;46.84;95064.09;5017296;28;20176;-73
2022/08/10 05:10:24;;;;;;;13.88;5.82;;;;;;;29.85;45.78;95058.13;5010707;28;20223;-74
2022/08/10 05:12:49;;;;;;;9.85;5.30;;;;;;;30.45;44.86;95065.13;5013588;28;20569;-74
2022/08/10 05:15:17;;;;;;;9.02;5.80;;;;;;;31.05;43.70;95061.91;5027306;28;20172;-74
2022/08/10 05:17:43;;;;;;;8.32;5.93;;;;;;;31.53;42.71;95065.91;5022208;28;20338;-74
2022/08/10 05:20:10;;;;;;;9.23;5.25;;;;;;;32.02;41.50;95062.09;5011399;28;20200;-74
2022/08/10 05:22:41;;;;;;;10.38;5.50;;;;;;;32.45;40.53;95066.94;5011587;28;20663;-74
2022/08/10 05:25:10;;;;;;;10.80;5.80;;;;;;;32.81;40.05;95068.81;5012313;28;20751;-74
2022/08/10 05:27:37;;;;;;;7.57;5.47;;;;;;;33.08;39.50;95060.97;5012526;28;20736;-74
2022/08/10 05:30:04;;;;;;;8.63;5.18;;;;;;;33.61;38.68;95076.03;5012543;28;20254;-74
2022/08/10 05:32:32;;;;;;;8.00;5.65;;;;;;;34.22;37.62;95062.72;5018214;28;20227;-74
2022/08/10 05:34:57;;;;;;;7.82;5.38;;;;;;;34.60;36.70;95062.00;5012401;28;20248;-74
2022/08/10 05:37:24;;;;;;;7.65;5.88;;;;;;;34.95;36.49;95055.69;5012325;28;20192;-74
2022/08/10 05:39:50;;;;;;;6.25;5.65;;;;;;;35.45;35.70;95069.22;5012522;28;20595;-74
2022/08/10 05:42:16;;;;;;;7.70;5.95;;;;;;;35.85;34.92;95070.69;5029621;28;20171;-74
2022/08/10 05:44:43;;;;;;;9.38;7.40;;;;;;;35.99;34.54;95045.44;5032020;28;20183;-74
2022/08/10 05:47:08;;;;;;;605.72;181.63;;;;;;;36.32;33.44;95064.81;5031975;28;20279;-74
2022/08/10 05:49:34;;;;;;;7.82;4.45;;;;;;;36.44;33.50;95066.50;5018957;28;20258;-76
2022/08/10 05:52:00;;;;;;;8.55;5.78;;;;;;;36.48;33.87;95068.16;5016756;28;20716;-76
2022/08/10 05:54:26;;;;;;;7.25;5.13;;;;;;;36.50;33.68;95043.09;5026481;28;20185;-76
2022/08/10 05:56:53;;;;;;;8.77;6.65;;;;;;;36.89;33.02;95069.09;5022982;28;20974;-76
2022/08/10 05:59:19;;;;;;;10.73;6.65;;;;;;;36.58;32.62;95047.50;5020491;28;20199;-76
2022/08/10 06:01:48;;;;;;;8.27;6.55;;;;;;;36.73;32.68;95076.75;5021208;28;20171;-76
2022/08/10 06:04:28;;;;;;;9.27;6.85;;;;;;;36.63;32.84;95074.63;5022584;28;20300;-76
2022/08/10 06:06:54;;;;;;;6.90;6.25;;;;;;;36.28;33.33;95075.69;5016987;28;20183;-76
2022/08/10 06:09:22;;;;;;;7.50;6.70;;;;;;;35.91;34.25;95071.94;5027376;28;20187;-76
2022/08/10 06:11:50;;;;;;;7.85;6.40;;;;;;;35.62;35.05;95070.69;5020285;28;20191;-76
2022/08/10 06:17:02;;;;;;;8.30;6.75;;;;;;;35.44;35.32;95072.31;5011976;28;20195;-76
2022/08/10 06:19:28;;;;;;;11.27;7.30;;;;;;;34.97;35.86;95043.22;5028917;28;20196;-76
2022/08/10 06:21:58;;;;;;;8.43;6.75;;;;;;;34.62;36.60;95065.16;5022329;28;20183;-76
2022/08/10 06:24:26;;;;;;;14.68;6.97;;;;;;;34.03;38.12;95068.13;5026601;28;20183;-76
2022/08/10 06:26:54;;;;;;;13.05;7.68;;;;;;;33.52;39.30;95051.63;5024785;28;20207;-76
2022/08/10 06:29:21;;;;;;;10.00;8.15;;;;;;;32.79;40.20;95065.63;5015203;28;20238;-76
2022/08/10 06:31:49;;;;;;;9.25;7.03;;;;;;;32.55;41.11;95069.19;5023140;28;20551;-77
2022/08/10 06:41:03;;;;;;;15.27;8.65;;;;;;;31.76;43.44;95078.00;5024023;28;20231;-76
2022/08/10 06:43:31;;;;;;;15.02;8.60;;;;;;;31.57;43.74;95055.94;5010243;28;20260;-76
2022/08/10 06:46:03;;;;;;;1999.90;999.90;;;;;;;31.23;43.62;95076.16;5015599;28;20180;-76
2022/08/10 06:48:34;;;;;;;1999.90;999.90;;;;;;;30.64;44.19;95043.75;5019746;28;20259;-76
2022/08/10 06:51:04;;;;;;;1999.90;999.90;;;;;;;30.40;45.55;95074.28;5015462;28;20175;-76
2022/08/10 06:53:32;;;;;;;559.50;143.20;;;;;;;30.45;46.12;95067.84;5017495;28;20172;-76
2022/08/10 06:56:02;;;;;;;171.00;62.55;;;;;;;30.75;45.51;95064.75;5013078;28;20195;-76
2022/08/10 06:58:36;;;;;;;35.30;12.18;;;;;;;31.18;43.80;95065.50;5017695;28;20180;-76
2022/08/10 07:01:05;;;;;;;98.63;47.03;;;;;;;31.45;44.51;95064.88;5011983;28;20173;-76
2022/08/10 07:03:37;;;;;;;123.40;57.85;;;;;;;31.99;43.31;95067.44;5018667;28;20172;-76
2022/08/10 07:06:05;;;;;;;1466.32;695.72;;;;;;;32.27;42.04;95062.88;5017076;28;20211;-76
2022/08/10 07:08:32;;;;;;;1999.90;999.90;;;;;;;32.57;41.17;95072.38;5016300;28;20191;-76
2022/08/10 07:11:00;;;;;;;10.75;7.28;;;;;;;32.33;40.91;95075.16;5012849;28;20172;-76
2022/08/10 07:13:26;;;;;;;9.27;7.43;;;;;;;32.08;41.76;95052.56;5015279;28;20174;-76
2022/08/10 07:15:52;;;;;;;9.27;8.13;;;;;;;32.04;42.32;95059.03;5014648;28;20254;-76
2022/08/10 07:18:19;;;;;;;15.50;8.75;;;;;;;31.91;42.17;95063.72;5030681;28;20618;-76
2022/08/10 07:20:47;;;;;;;1999.90;999.90;;;;;;;31.83;42.34;95051.78;5013032;28;20206;-76
2022/08/10 07:23:15;;;;;;;13.05;9.13;;;;;;;31.30;42.77;95047.28;5013319;28;20645;-78
2022/08/10 07:25:44;;;;;;;19.05;9.48;;;;;;;31.48;43.82;95061.50;5022894;28;20184;-76
2022/08/10 07:28:10;;;;;;;1999.90;999.90;;;;;;;31.75;42.50;95058.13;5022164;28;20180;-77
2022/08/10 07:30:37;;;;;;;9.35;7.78;;;;;;;31.73;41.68;95060.41;5024376;28;20185;-77
2022/08/10 07:33:04;;;;;;;9.43;8.07;;;;;;;31.62;42.35;95063.91;5010545;28;20239;-75
2022/08/10 07:35:32;;;;;;;1999.90;999.90;;;;;;;31.32;41.69;95057.81;5013211;28;20172;-76
2022/08/10 07:38:01;;;;;;;1999.90;999.90;;;;;;;31.35;43.03;95057.94;5010529;28;20225;-75
2022/08/10 07:40:28;;;;;;;12.40;9.18;;;;;;;31.43;42.00;95056.25;5019771;28;20214;-76
2022/08/10 07:42:57;;;;;;;16.02;14.38;;;;;;;31.43;41.85;95053.53;5021809;28;20270;-75
2022/08/10 07:45:27;;;;;;;1505.53;640.17;;;;;;;31.60;42.66;95023.38;5030513;28;20343;-75
2022/08/10 07:48:06;;;;;;;9.77;6.45;;;;;;;32.34;40.02;95063.13;5030615;28;20315;-76
2022/08/10 07:50:35;;;;;;;10.82;6.65;;;;;;;32.61;38.13;95046.00;5010050;28;20179;-75
2022/08/10 07:53:02;;;;;;;36.60;9.25;;;;;;;32.51;38.84;95053.88;5020981;28;20185;-74
2022/08/10 07:55:28;;;;;;;54.50;13.18;;;;;;;31.79;38.89;95031.03;5029696;28;20180;-74
2022/08/10 07:57:56;;;;;;;12.50;7.45;;;;;;;30.74;41.20;95046.06;5029821;28;20254;-74
2022/08/10 08:00:24;;;;;;;13.10;6.50;;;;;;;30.10;42.93;95040.91;5029747;28;20203;-74
2022/08/10 08:02:52;;;;;;;7.93;7.05;;;;;;;30.36;43.09;95036.09;5030064;28;20179;-74
2022/08/10 08:05:26;;;;;;;14.95;6.70;;;;;;;31.00;42.24;95043.09;5029682;28;20722;-74
2022/08/10 08:07:53;;;;;;;7.70;5.47;;;;;;;31.71;40.14;95043.63;5029557;28;20184;-74
2022/08/10 08:10:22;;;;;;;7.60;6.15;;;;;;;32.21;38.83;95042.47;5029700;28;20168;-74
2022/08/10 08:12:50;;;;;;;8.77;6.45;;;;;;;32.63;38.19;95042.91;5029650;28;20176;-75
2022/08/10 08:15:19;;;;;;;57.95;7.50;;;;;;;33.06;37.00;95047.66;5021602;28;20176;-75
2022/08/10 08:17:47;;;;;;;6.65;6.00;;;;;;;33.36;36.41;95028.19;5029672;28;20172;-75
2022/08/10 08:20:16;;;;;;;7.00;4.55;;;;;;;33.13;35.39;95044.31;5024061;28;20209;-75
2022/08/10 08:22:43;;;;;;;7.07;4.93;;;;;;;32.77;36.91;95037.91;5027151;28;20172;-75
2022/08/10 08:25:09;;;;;;;8.30;4.95;;;;;;;32.55;36.69;95030.22;5012783;28;20173;-75
2022/08/10 08:27:36;;;;;;;7.35;3.95;;;;;;;32.46;35.90;95024.91;4995854;28;20180;-75
2022/08/10 08:30:02;;;;;;;6.13;4.35;;;;;;;32.56;37.42;95034.53;5023562;28;20169;-75
2022/08/10 08:32:30;;;;;;;7.43;4.70;;;;;;;32.96;35.01;95038.03;5013418;28;20248;-75
2022/08/10 08:35:01;;;;;;;6.50;4.20;;;;;;;32.98;36.07;95033.03;5013746;28;20177;-75
2022/08/10 08:37:29;;;;;;;6.15;5.00;;;;;;;33.34;35.58;95034.78;5013636;28;20204;-75
2022/08/10 08:39:56;;;;;;;8.20;4.78;;;;;;;33.41;35.42;95015.06;5013146;28;20220;-75
2022/08/10 08:42:51;;;;;;;8.57;5.05;;;;;;;33.55;34.64;95031.81;5015002;28;20622;-75
2022/08/10 08:45:35;;;;;;;11.38;3.85;;;;;;;33.70;32.71;95030.22;5020295;28;20161;-75
2022/08/10 08:48:41;;;;;;;5.28;4.32;;;;;;;33.77;34.32;95026.88;5013384;28;20975;-75
2022/08/10 08:51:24;;;;;;;6.97;4.95;;;;;;;33.94;35.08;95030.03;5015863;28;20188;-75
2022/08/10 08:54:12;;;;;;;6.43;5.72;;;;;;;34.25;34.08;95028.44;5012479;28;20176;-77
2022/08/10 08:56:46;;;;;;;10.98;5.20;;;;;;;34.15;34.52;95024.28;5021828;28;20548;-75
2022/08/10 08:59:30;;;;;;;9.18;5.15;;;;;;;34.12;35.25;95029.66;5016522;28;20196;-79
2022/08/10 09:02:09;;;;;;;11.05;4.95;;;;;;;34.23;34.75;95030.69;5016603;28;20525;-78
2022/08/10 09:04:56;;;;;;;7.65;5.15;;;;;;;34.12;34.23;95030.44;5015746;28;20176;-78
2022/08/10 09:07:46;;;;;;;9.07;4.70;;;;;;;33.46;34.60;95025.75;5028469;28;20210;-75
2022/08/10 09:10:44;;;;;;;8.43;5.22;;;;;;;33.20;36.25;95020.75;5022140;28;20241;-75
2022/08/10 09:13:25;;;;;;;6.57;4.75;;;;;;;33.19;36.34;95021.09;5012335;28;20172;-75
2022/08/10 09:15:56;;;;;;;8.63;5.30;;;;;;;33.05;36.05;95007.84;5013431;28;20259;-74
2022/08/10 09:18:38;;;;;;;6.47;5.40;;;;;;;33.05;35.66;95015.25;4994035;28;20177;-74
2022/08/10 09:21:20;;;;;;;6.60;5.03;;;;;;;32.52;37.97;95009.13;5022263;28;20539;-74
2022/08/10 09:24:13;;;;;;;7.13;4.53;;;;;;;32.58;36.35;94973.06;5032149;28;20172;-74
2022/08/10 09:26:39;;;;;;;3.78;3.38;;;;;;;32.98;36.56;95007.69;5032576;28;20554;-74
2022/08/10 09:29:06;;;;;;;7.68;3.67;;;;;;;32.94;34.78;95004.88;5020549;28;20184;-74
2022/08/10 09:31:42;;;;;;;7.50;4.20;;;;;;;32.66;34.88;94993.16;5012554;28;20192;-74
2022/08/10 09:34:19;;;;;;;4.97;3.40;;;;;;;32.47;34.26;94996.50;5010382;28;20212;-75
2022/08/10 09:36:48;;;;;;;4.28;3.20;;;;;;;32.32;34.31;94988.28;5012783;28;20184;-74
2022/08/10 09:39:29;;;;;;;4.60;3.33;;;;;;;32.30;34.49;94996.00;5012378;28;20315;-74
2022/08/10 09:42:12;;;;;;;5.20;2.92;;;;;;;32.34;35.58;94992.25;5012489;28;20609;-73
2022/08/10 09:44:40;;;;;;;5.93;3.13;;;;;;;32.61;35.25;95005.09;5012358;28;20574;-74
2022/08/10 09:47:08;;;;;;;2.92;2.63;;;;;;;32.75;33.29;95001.22;5011726;28;20218;-75
2022/08/10 09:49:45;;;;;;;3.20;2.55;;;;;;;32.84;34.12;94999.13;5007118;28;20188;-75
2022/08/10 09:52:38;;;;;;;3.75;3.05;;;;;;;32.87;32.85;94993.75;5004989;28;20180;-75
2022/08/10 09:55:19;;;;;;;2.97;2.55;;;;;;;32.74;33.90;94966.88;5003430;28;20238;-74
2022/08/10 09:57:56;;;;;;;4.57;2.88;;;;;;;32.78;34.01;94990.38;5000384;28;20204;-74
2022/08/10 10:00:29;;;;;;;5.95;4.10;;;;;;;32.71;33.23;94992.91;4992346;28;20622;-74
2022/08/10 10:03:18;;;;;;;7.32;3.35;;;;;;;32.48;34.76;94986.41;4992855;28;20292;-75
2022/08/10 10:06:11;;;;;;;7.70;3.17;;;;;;;32.55;33.70;94998.28;4996446;28;20626;-74
2022/08/10 10:08:51;;;;;;;6.07;2.80;;;;;;;32.48;34.20;94981.75;4992266;28;20561;-74
2022/08/10 10:11:19;;;;;;;3.85;2.70;;;;;;;32.32;34.81;94989.06;4992390;28;20327;-74
2022/08/10 10:14:04;;;;;;;5.72;3.53;;;;;;;31.94;36.54;94988.66;4995325;28;20646;-75
2022/08/10 10:16:39;;;;;;;5.18;2.78;;;;;;;31.67;35.34;94993.69;4996690;28;20558;-74
2022/08/10 10:19:31;;;;;;;6.18;2.70;;;;;;;30.94;35.71;94984.59;4992070;28;20200;-74
2022/08/10 10:22:09;;;;;;;2.55;2.33;;;;;;;30.53;35.93;94974.63;4991833;28;20243;-74
2022/08/10 10:24:45;;;;;;;4.40;2.78;;;;;;;30.22;36.68;94956.78;5011419;28;20192;-75
2022/08/10 10:27:35;;;;;;;3.28;2.78;;;;;;;29.78;37.23;94960.13;5010823;28;20238;-75
2022/08/10 10:30:07;;;;;;;4.90;2.63;;;;;;;29.54;38.52;94966.97;5011498;28;20176;-74
2022/08/10 10:32:57;;;;;;;4.20;2.63;;;;;;;29.80;38.56;94976.88;5009140;28;20688;-75
2022/08/10 10:35:31;;;;;;;7.03;3.03;;;;;;;29.64;39.65;94939.47;5010245;28;20176;-75
2022/08/10 10:37:58;;;;;;;4.93;3.08;;;;;;;30.04;39.71;94968.13;5010652;28;20542;-75
2022/08/10 10:40:27;;;;;;;3.75;2.45;;;;;;;30.14;39.98;94959.59;5010551;28;20215;-74
2022/08/10 10:43:25;;;;;;;4.03;2.70;;;;;;;30.36;39.87;94967.38;5009615;28;20187;-75
2022/08/10 10:46:09;;;;;;;4.63;3.08;;;;;;;30.37;39.26;94955.38;5008182;28;20681;-75
2022/08/10 10:48:59;;;;;;;4.90;2.70;;;;;;;30.56;39.36;94952.19;5008444;28;20180;-75
2022/08/10 10:51:33;;;;;;;3.65;2.97;;;;;;;30.63;39.39;94952.44;5008070;28;20276;-75
2022/08/10 10:54:49;;;;;;;4.03;2.75;;;;;;;30.64;39.11;94954.03;5008226;28;20259;-74
2022/08/10 10:57:28;;;;;;;4.55;3.03;;;;;;;30.54;39.24;94954.44;5002056;28;20194;-75
2022/08/10 11:00:07;;;;;;;5.05;3.42;;;;;;;30.54;38.86;94952.53;5007307;28;20203;-75
2022/08/10 11:03:10;;;;;;;4.80;3.13;;;;;;;30.47;38.91;94951.44;4990887;28;20176;-74
2022/08/10 11:05:47;;;;;;;5.78;3.25;;;;;;;30.06;39.81;94952.28;5008287;28;20184;-74
2022/08/10 11:08:22;;;;;;;4.78;3.40;;;;;;;30.16;40.54;94951.91;5009000;28;20551;-74
2022/08/10 11:10:54;;;;;;;8.10;4.20;;;;;;;30.39;39.19;94945.78;5010183;28;20632;-74
2022/08/10 11:13:29;;;;;;;3.85;3.03;;;;;;;30.59;39.09;94948.81;5009829;28;20188;-74
2022/08/10 11:16:17;;;;;;;6.65;3.25;;;;;;;30.76;38.82;94954.06;5010148;28;20175;-75
2022/08/10 11:19:02;;;;;;;6.50;3.30;;;;;;;30.70;38.47;94915.41;5009838;28;20187;-75
2022/08/10 11:21:39;;;;;;;4.80;2.85;;;;;;;30.69;38.19;94956.56;5009809;28;20184;-75
2022/08/10 11:24:34;;;;;;;4.28;2.90;;;;;;;30.41;38.54;94952.81;5009869;28;20668;-75
2022/08/10 11:27:31;;;;;;;6.45;4.40;;;;;;;30.30;40.21;94950.47;5009574;28;20180;-75
2022/08/10 11:30:03;;;;;;;4.95;3.30;;;;;;;30.34;38.98;94939.75;5009646;28;20204;-75
2022/08/10 11:32:40;;;;;;;5.22;3.15;;;;;;;30.08;39.46;94941.91;5009817;28;20220;-75
2022/08/10 11:35:11;;;;;;;4.40;3.28;;;;;;;30.15;39.83;94940.25;5010369;28;20634;-75
2022/08/10 11:37:52;;;;;;;3.45;2.92;;;;;;;30.24;39.16;94942.88;5010256;28;20646;-75
2022/08/10 11:40:27;;;;;;;4.75;3.13;;;;;;;30.18;40.19;94914.34;5010142;28;20203;-75
2022/08/10 11:43:12;;;;;;;6.07;2.90;;;;;;;30.35;39.86;94928.56;5010215;28;20182;-75
2022/08/10 11:45:41;;;;;;;4.05;3.13;;;;;;;30.43;39.22;94929.59;5010189;28;20661;-75
2022/08/10 11:48:20;;;;;;;3.42;3.10;;;;;;;30.43;38.89;94921.44;5010244;28;20180;-75
2022/08/10 11:50:55;;;;;;;5.20;2.88;;;;;;;30.22;38.43;94924.19;5010194;28;20552;-75
2022/08/10 11:53:38;;;;;;;3.03;2.72;;;;;;;29.51;39.01;94880.00;5010196;28;20180;-75
2022/08/10 11:56:05;;;;;;;4.75;3.33;;;;;;;29.23;40.49;94885.09;5009206;28;20231;-75
2022/08/10 12:01:25;;;;;;;13.90;3.25;;;;;;;28.79;42.56;94925.19;5010200;28;20234;-75
2022/08/10 12:03:51;;;;;;;5.70;3.40;;;;;;;28.49;43.34;94923.47;5010056;28;20179;-75
2022/08/10 12:06:19;;;;;;;6.82;4.05;;;;;;;28.43;42.90;94930.19;5010361;28;20207;-75